sensor_id;sensor_type;location;lat;lon;timestamp;pressure;altitude;pressure_sealevel;temperature;humidity
43707;BME280;61348;53.392;-6.248;2024-01-15T00:01:31;100813.75;;;1.17;100.00
43707;BME280;61348;53.392;-6.248;2024-01-15T00:03:59;100813.75;;;1.17;100.00
43707;BME280;61348;53.392;-6.248;2024-01-15T00:06:26;100805.03;;;1.15;100.00
43707;BME280;61348;53.392;-6.248;2024-01-15T00:08:55;100802.88;;;1.12;100.00
43707;BME280;61348;53.392;-6.248;2024-01-15T00:11:25;100791.44;;;1.10;100.00
43707;BME280;61348;53.392;-6.248;2024-01-15T00:13:52;100796.59;;;1.11;100.00
43707;BME280;61348;53.392;-6.248;2024-01-15T00:16:20;100800.16;;;1.12;100.00
43707;BME280;61348;53.392;-6.248;2024-01-15T00:18:47;100797.41;;;1.12;100.00
43707;BME280;61348;53.392;-6.248;2024-01-15T00:21:14;100804.25;;;1.09;100.00
43707;BME280;61348;53.392;-6.248;2024-01-15T00:23:43;100790.91;;;1.08;100.00
43707;BME280;61348;53.392;-6.248;2024-01-15T00:26:11;100792.28;;;1.05;100.00
43707;BME280;61348;53.392;-6.248;2024-01-15T00:28:39;100795.84;;;1.06;100.00
43707;BME280;61348;53.392;-6.248;2024-01-15T00:31:06;100800.72;;;1.04;100.00
43707;BME280;61348;53.392;-6.248;2024-01-15T00:33:34;100791.47;;;1.05;100.00
43707;BME280;61348;53.392;-6.248;2024-01-15T00:36:01;100797.75;;;1.05;100.00
43707;BME280;61348;53.392;-6.248;2024-01-15T00:38:29;100798.81;;;1.04;100.00
43707;BME280;61348;53.392;-6.248;2024-01-15T00:40:56;100792.84;;;1.02;100.00
43707;BME280;61348;53.392;-6.248;2024-01-15T00:43:23;100794.22;;;1.00;100.00
43707;BME280;61348;53.392;-6.248;2024-01-15T00:45:50;100779.81;;;0.94;100.00
43707;BME280;61348;53.392;-6.248;2024-01-15T00:48:20;100779.53;;;0.91;100.00
43707;BME280;61348;53.392;-6.248;2024-01-15T00:50:48;100780.09;;;0.88;100.00
43707;BME280;61348;53.392;-6.248;2024-01-15T00:53:15;100784.75;;;0.87;100.00
43707;BME280;61348;53.392;-6.248;2024-01-15T00:55:42;100780.41;;;0.86;100.00
43707;BME280;61348;53.392;-6.248;2024-01-15T00:58:10;100772.78;;;0.83;100.00
43707;BME280;61348;53.392;-6.248;2024-01-15T01:00:37;100773.06;;;0.82;100.00
43707;BME280;61348;53.392;-6.248;2024-01-15T01:03:04;100768.69;;;0.81;100.00
43707;BME280;61348;53.392;-6.248;2024-01-15T01:05:33;100772.25;;;0.81;100.00
43707;BME280;61348;53.392;-6.248;2024-01-15T01:08:01;100771.94;;;0.83;100.00
43707;BME280;61348;53.392;-6.248;2024-01-15T01:10:29;100772.25;;;0.81;100.00
43707;BME280;61348;53.392;-6.248;2024-01-15T01:12:56;100764.88;;;0.82;100.00
43707;BME280;61348;53.392;-6.248;2024-01-15T01:15:23;100760.81;;;0.79;100.00
43707;BME280;61348;53.392;-6.248;2024-01-15T01:17:51;100761.59;;;0.80;100.00
43707;BME280;61348;53.392;-6.248;2024-01-15T01:20:19;100767.06;;;0.80;100.00
43707;BME280;61348;53.392;-6.248;2024-01-15T01:22:46;100763.81;;;0.78;100.00
43707;BME280;61348;53.392;-6.248;2024-01-15T01:25:14;100764.34;;;0.75;100.00
43707;BME280;61348;53.392;-6.248;2024-01-15T01:27:42;100753.47;;;0.75;100.00
43707;BME280;61348;53.392;-6.248;2024-01-15T01:30:10;100752.66;;;0.74;100.00
43707;BME280;61348;53.392;-6.248;2024-01-15T01:32:37;100748.56;;;0.72;100.00
43707;BME280;61348;53.392;-6.248;2024-01-15T01:35:05;100754.00;;;0.72;100.00
43707;BME280;61348;53.392;-6.248;2024-01-15T01:37:35;100743.69;;;0.69;100.00
43707;BME280;61348;53.392;-6.248;2024-01-15T01:40:03;100742.06;;;0.68;100.00
43707;BME280;61348;53.392;-6.248;2024-01-15T01:42:31;100748.59;;;0.67;100.00
43707;BME280;61348;53.392;-6.248;2024-01-15T01:44:58;100735.56;;;0.64;100.00
43707;BME280;61348;53.392;-6.248;2024-01-15T01:47:26;100739.38;;;0.63;100.00
43707;BME280;61348;53.392;-6.248;2024-01-15T01:49:54;100743.16;;;0.61;100.00
43707;BME280;61348;53.392;-6.248;2024-01-15T01:52:21;100747.78;;;0.61;100.00
43707;BME280;61348;53.392;-6.248;2024-01-15T01:54:49;100739.91;;;0.59;100.00
43707;BME280;61348;53.392;-6.248;2024-01-15T01:57:18;100736.38;;;0.59;100.00
43707;BME280;61348;53.392;-6.248;2024-01-15T01:59:46;100743.47;;;0.60;100.00
43707;BME280;61348;53.392;-6.248;2024-01-15T02:02:15;100742.13;;;0.57;100.00
43707;BME280;61348;53.392;-6.248;2024-01-15T02:04:43;100747.56;;;0.57;100.00
43707;BME280;61348;53.392;-6.248;2024-01-15T02:07:11;100737.75;;;0.56;100.00
43707;BME280;61348;53.392;-6.248;2024-01-15T02:09:39;100744.31;;;0.55;100.00
43707;BME280;61348;53.392;-6.248;2024-01-15T02:12:06;100736.13;;;0.55;100.00
43707;BME280;61348;53.392;-6.248;2024-01-15T02:14:34;100730.69;;;0.55;100.00
43707;BME280;61348;53.392;-6.248;2024-01-15T02:17:01;100721.69;;;0.55;100.00
43707;BME280;61348;53.392;-6.248;2024-01-15T02:19:28;100728.53;;;0.52;100.00
43707;BME280;61348;53.392;-6.248;2024-01-15T02:21:56;100737.78;;;0.51;100.00
43707;BME280;61348;53.392;-6.248;2024-01-15T02:24:23;100730.69;;;0.50;100.00
43707;BME280;61348;53.392;-6.248;2024-01-15T02:26:51;100727.44;;;0.48;100.00
43707;BME280;61348;53.392;-6.248;2024-01-15T02:29:18;100723.88;;;0.48;100.00
43707;BME280;61348;53.392;-6.248;2024-01-15T02:31:46;100729.06;;;0.49;100.00
43707;BME280;61348;53.392;-6.248;2024-01-15T02:34:14;100730.69;;;0.50;100.00
43707;BME280;61348;53.392;-6.248;2024-01-15T02:36:42;100725.25;;;0.50;100.00
43707;BME280;61348;53.392;-6.248;2024-01-15T02:39:09;100726.59;;;0.48;100.00
43707;BME280;61348;53.392;-6.248;2024-01-15T02:41:37;100716.53;;;0.48;100.00
43707;BME280;61348;53.392;-6.248;2024-01-15T02:44:05;100720.38;;;0.47;100.00
43707;BME280;61348;53.392;-6.248;2024-01-15T02:46:32;100715.72;;;0.48;100.00
43707;BME280;61348;53.392;-6.248;2024-01-15T02:49:00;100720.09;;;0.49;100.00
43707;BME280;61348;53.392;-6.248;2024-01-15T02:51:27;100725.00;;;0.47;100.00
43707;BME280;61348;53.392;-6.248;2024-01-15T02:53:55;100724.72;;;0.48;100.00
43707;BME280;61348;53.392;-6.248;2024-01-15T02:56:22;100723.09;;;0.47;100.00
43707;BME280;61348;53.392;-6.248;2024-01-15T02:58:49;100719.56;;;0.47;100.00
43707;BME280;61348;53.392;-6.248;2024-01-15T03:01:18;100718.72;;;0.46;100.00
43707;BME280;61348;53.392;-6.248;2024-01-15T03:03:47;100722.28;;;0.47;100.00
43707;BME280;61348;53.392;-6.248;2024-01-15T03:06:14;100731.28;;;0.47;100.00
43707;BME280;61348;53.392;-6.248;2024-01-15T03:08:41;100725.81;;;0.47;100.00
43707;BME280;61348;53.392;-6.248;2024-01-15T03:11:09;100734.25;;;0.46;100.00
43707;BME280;61348;53.392;-6.248;2024-01-15T03:13:36;100735.06;;;0.46;100.00
43707;BME280;61348;53.392;-6.248;2024-01-15T03:16:05;100725.25;;;0.45;100.00
43707;BME280;61348;53.392;-6.248;2024-01-15T03:18:33;100719.81;;;0.45;100.00
43707;BME280;61348;53.392;-6.248;2024-01-15T03:21:01;100718.19;;;0.44;100.00
43707;BME280;61348;53.392;-6.248;2024-01-15T03:23:28;100725.56;;;0.44;100.00
43707;BME280;61348;53.392;-6.248;2024-01-15T03:25:55;100728.56;;;0.42;100.00
43707;BME280;61348;53.392;-6.248;2024-01-15T03:28:24;100728.56;;;0.42;100.00
43707;BME280;61348;53.392;-6.248;2024-01-15T03:30:51;100726.94;;;0.41;100.00
43707;BME280;61348;53.392;-6.248;2024-01-15T03:33:18;100733.44;;;0.40;100.00
43707;BME280;61348;53.392;-6.248;2024-01-15T03:35:46;100729.13;;;0.39;100.00
43707;BME280;61348;53.392;-6.248;2024-01-15T03:38:13;100727.47;;;0.38;100.00
43707;BME280;61348;53.392;-6.248;2024-01-15T03:40:40;100722.31;;;0.37;100.00
43707;BME280;61348;53.392;-6.248;2024-01-15T03:43:09;100721.50;;;0.36;100.00
43707;BME280;61348;53.392;-6.248;2024-01-15T03:45:37;100728.03;;;0.35;100.00
43707;BME280;61348;53.392;-6.248;2024-01-15T03:48:04;100724.78;;;0.33;100.00
43707;BME280;61348;53.392;-6.248;2024-01-15T03:50:32;100713.88;;;0.33;100.00
43707;BME280;61348;53.392;-6.248;2024-01-15T03:52:59;100722.34;;;0.32;100.00
43707;BME280;61348;53.392;-6.248;2024-01-15T03:55:27;100713.91;;;0.28;100.00
43707;BME280;61348;53.392;-6.248;2024-01-15T03:57:54;100717.19;;;0.25;100.00
43707;BME280;61348;53.392;-6.248;2024-01-15T04:00:22;100711.72;;;0.25;100.00
43707;BME280;61348;53.392;-6.248;2024-01-15T04:02:49;100703.88;;;0.24;100.00
43707;BME280;61348;53.392;-6.248;2024-01-15T04:05:17;100694.34;;;0.21;100.00
43707;BME280;61348;53.392;-6.248;2024-01-15T04:07:44;100700.88;;;0.20;100.00
43707;BME280;61348;53.392;-6.248;2024-01-15T04:10:11;100695.44;;;0.20;100.00
43707;BME280;61348;53.392;-6.248;2024-01-15T04:12:39;100708.50;;;0.18;100.00
43707;BME280;61348;53.392;-6.248;2024-01-15T04:15:06;100700.34;;;0.18;100.00
43707;BME280;61348;53.392;-6.248;2024-01-15T04:17:33;100708.75;;;0.17;100.00
43707;BME280;61348;53.392;-6.248;2024-01-15T04:20:01;100718.84;;;0.16;100.00
43707;BME280;61348;53.392;-6.248;2024-01-15T04:22:28;100706.34;;;0.15;100.00
43707;BME280;61348;53.392;-6.248;2024-01-15T04:24:55;100711.78;;;0.15;100.00
43707;BME280;61348;53.392;-6.248;2024-01-15T04:27:23;100707.69;;;0.13;100.00
43707;BME280;61348;53.392;-6.248;2024-01-15T04:29:50;100715.06;;;0.12;100.00
43707;BME280;61348;53.392;-6.248;2024-01-15T04:32:18;100718.84;;;0.11;100.00
43707;BME280;61348;53.392;-6.248;2024-01-15T04:34:45;100733.28;;;0.12;100.00
43707;BME280;61348;53.392;-6.248;2024-01-15T04:37:13;100730.28;;;0.08;100.00
43707;BME280;61348;53.392;-6.248;2024-01-15T04:39:41;100732.47;;;0.06;100.00
43707;BME280;61348;53.392;-6.248;2024-01-15T04:42:08;100719.41;;;0.03;100.00
43707;BME280;61348;53.392;-6.248;2024-01-15T04:44:36;100691.97;;;-0.01;100.00
43707;BME280;61348;53.392;-6.248;2024-01-15T04:47:03;100687.88;;;-0.03;100.00
43707;BME280;61348;53.392;-6.248;2024-01-15T04:49:30;100687.88;;;-0.03;100.00
43707;BME280;61348;53.392;-6.248;2024-01-15T04:51:58;100698.22;;;-0.05;100.00
43707;BME280;61348;53.392;-6.248;2024-01-15T04:54:26;100709.66;;;-0.03;100.00
43707;BME280;61348;53.392;-6.248;2024-01-15T04:56:53;100720.53;;;-0.03;100.00
43707;BME280;61348;53.392;-6.248;2024-01-15T04:59:21;100726.78;;;-0.03;100.00
43707;BME280;61348;53.392;-6.248;2024-01-15T05:01:48;100726.53;;;-0.06;100.00
43707;BME280;61348;53.392;-6.248;2024-01-15T05:04:16;100716.47;;;-0.06;100.00
43707;BME280;61348;53.392;-6.248;2024-01-15T05:06:43;100699.88;;;-0.09;100.00
43707;BME280;61348;53.392;-6.248;2024-01-15T05:09:11;100715.38;;;-0.10;100.00
43707;BME280;61348;53.392;-6.248;2024-01-15T05:11:39;100720.56;;;-0.08;100.00
43707;BME280;61348;53.392;-6.248;2024-01-15T05:14:06;100726.25;;;-0.10;100.00
43707;BME280;61348;53.392;-6.248;2024-01-15T05:16:34;100730.34;;;-0.12;100.00
43707;BME280;61348;53.392;-6.248;2024-01-15T05:19:01;100733.88;;;-0.12;100.00
43707;BME280;61348;53.392;-6.248;2024-01-15T05:21:29;100745.03;;;-0.13;100.00
43707;BME280;61348;53.392;-6.248;2024-01-15T05:23:56;100753.47;;;-0.15;100.00
43707;BME280;61348;53.392;-6.248;2024-01-15T05:26:23;100742.88;;;-0.16;100.00
43707;BME280;61348;53.392;-6.248;2024-01-15T05:28:51;100733.06;;;-0.17;100.00
43707;BME280;61348;53.392;-6.248;2024-01-15T05:31:19;100733.06;;;-0.17;100.00
43707;BME280;61348;53.392;-6.248;2024-01-15T05:33:47;100725.19;;;-0.19;100.00
43707;BME280;61348;53.392;-6.248;2024-01-15T05:36:14;100718.38;;;-0.21;100.00
43707;BME280;61348;53.392;-6.248;2024-01-15T05:38:42;100718.94;;;-0.24;100.00
43707;BME280;61348;53.392;-6.248;2024-01-15T05:41:09;100732.56;;;-0.24;100.00
43707;BME280;61348;53.392;-6.248;2024-01-15T05:43:37;100736.34;;;-0.25;100.00
43707;BME280;61348;53.392;-6.248;2024-01-15T05:46:04;100744.50;;;-0.25;100.00
43707;BME280;61348;53.392;-6.248;2024-01-15T05:48:31;100753.75;;;-0.26;100.00
43707;BME280;61348;53.392;-6.248;2024-01-15T05:50:59;100754.31;;;-0.29;100.00
43707;BME280;61348;53.392;-6.248;2024-01-15T05:53:26;100761.91;;;-0.31;100.00
43707;BME280;61348;53.392;-6.248;2024-01-15T05:55:54;100747.78;;;-0.33;100.00
43707;BME280;61348;53.392;-6.248;2024-01-15T05:58:23;100745.34;;;-0.35;100.00
43707;BME280;61348;53.392;-6.248;2024-01-15T06:00:51;100743.41;;;-0.34;100.00
43707;BME280;61348;53.392;-6.248;2024-01-15T06:03:19;100740.69;;;-0.34;100.00
43707;BME280;61348;53.392;-6.248;2024-01-15T06:05:46;100719.75;;;-0.34;100.00
43707;BME280;61348;53.392;-6.248;2024-01-15T06:08:14;100726.03;;;-0.33;100.00
43707;BME280;61348;53.392;-6.248;2024-01-15T06:10:42;100722.75;;;-0.35;100.00
43707;BME280;61348;53.392;-6.248;2024-01-15T06:13:09;100730.41;;;-0.37;100.00
43707;BME280;61348;53.392;-6.248;2024-01-15T06:15:36;100745.34;;;-0.40;100.00
43707;BME280;61348;53.392;-6.248;2024-01-15T06:18:04;100748.63;;;-0.43;100.00
43707;BME280;61348;53.392;-6.248;2024-01-15T06:20:32;100752.69;;;-0.45;100.00
43707;BME280;61348;53.392;-6.248;2024-01-15T06:23:00;100761.94;;;-0.46;100.00
43707;BME280;61348;53.392;-6.248;2024-01-15T06:25:27;100763.28;;;-0.49;100.00
43707;BME280;61348;53.392;-6.248;2024-01-15T06:27:54;100761.94;;;-0.51;100.00
43707;BME280;61348;53.392;-6.248;2024-01-15T06:30:22;100758.38;;;-0.52;100.00
43707;BME280;61348;53.392;-6.248;2024-01-15T06:32:51;100751.59;;;-0.54;100.00
43707;BME280;61348;53.392;-6.248;2024-01-15T06:35:18;100737.47;;;-0.56;100.00
43707;BME280;61348;53.392;-6.248;2024-01-15T06:37:49;100733.91;;;-0.57;100.00
43707;BME280;61348;53.392;-6.248;2024-01-15T06:40:16;100738.00;;;-0.59;100.00
43707;BME280;61348;53.392;-6.248;2024-01-15T06:42:44;100738.81;;;-0.59;100.00
43707;BME280;61348;53.392;-6.248;2024-01-15T06:45:11;100739.66;;;-0.58;100.00
43707;BME280;61348;53.392;-6.248;2024-01-15T06:47:38;100746.69;;;-0.57;100.00
43707;BME280;61348;53.392;-6.248;2024-01-15T06:50:06;100746.69;;;-0.57;100.00
43707;BME280;61348;53.392;-6.248;2024-01-15T06:52:34;100756.22;;;-0.60;100.00
43707;BME280;61348;53.392;-6.248;2024-01-15T06:55:01;100756.50;;;-0.62;100.00
43707;BME280;61348;53.392;-6.248;2024-01-15T06:57:29;100754.31;;;-0.65;100.00
43707;BME280;61348;53.392;-6.248;2024-01-15T06:59:56;100752.66;;;-0.66;100.00
43707;BME280;61348;53.392;-6.248;2024-01-15T07:02:23;100749.94;;;-0.66;100.00
43707;BME280;61348;53.392;-6.248;2024-01-15T07:04:51;100744.50;;;-0.66;100.00
43707;BME280;61348;53.392;-6.248;2024-01-15T07:07:18;100742.09;;;-0.67;100.00
43707;BME280;61348;53.392;-6.248;2024-01-15T07:09:46;100751.31;;;-0.68;100.00
43707;BME280;61348;53.392;-6.248;2024-01-15T07:12:13;100756.50;;;-0.67;100.00
43707;BME280;61348;53.392;-6.248;2024-01-15T07:14:41;100757.03;;;-0.70;100.00
43707;BME280;61348;53.392;-6.248;2024-01-15T07:17:08;100752.41;;;-0.69;100.00
43707;BME280;61348;53.392;-6.248;2024-01-15T07:19:35;100755.38;;;-0.71;100.00
43707;BME280;61348;53.392;-6.248;2024-01-15T07:22:03;100753.22;;;-0.74;100.00
43707;BME280;61348;53.392;-6.248;2024-01-15T07:24:31;100764.06;;;-0.74;100.00
43707;BME280;61348;53.392;-6.248;2024-01-15T07:27:01;100779.31;;;-0.73;100.00
43707;BME280;61348;53.392;-6.248;2024-01-15T07:29:28;100786.66;;;-0.73;100.00
43707;BME280;61348;53.392;-6.248;2024-01-15T07:31:56;100782.03;;;-0.73;100.00
43707;BME280;61348;53.392;-6.248;2024-01-15T07:34:23;100786.94;;;-0.75;100.00
43707;BME280;61348;53.392;-6.248;2024-01-15T07:36:51;100779.56;;;-0.74;100.00
43707;BME280;61348;53.392;-6.248;2024-01-15T07:39:18;100796.69;;;-0.74;100.00
43707;BME280;61348;53.392;-6.248;2024-01-15T07:41:46;100788.53;;;-0.74;100.00
43707;BME280;61348;53.392;-6.248;2024-01-15T07:44:13;100791.25;;;-0.74;100.00
43707;BME280;61348;53.392;-6.248;2024-01-15T07:46:48;100793.44;;;-0.76;100.00
43707;BME280;61348;53.392;-6.248;2024-01-15T07:49:15;100779.84;;;-0.76;100.00
43707;BME280;61348;53.392;-6.248;2024-01-15T07:51:44;100785.28;;;-0.76;100.00
43707;BME280;61348;53.392;-6.248;2024-01-15T07:54:11;100793.44;;;-0.76;100.00
43707;BME280;61348;53.392;-6.248;2024-01-15T07:56:58;100787.47;;;-0.78;100.00
43707;BME280;61348;53.392;-6.248;2024-01-15T07:59:26;100793.97;;;-0.79;100.00
43707;BME280;61348;53.392;-6.248;2024-01-15T08:01:54;100798.59;;;-0.79;100.00
43707;BME280;61348;53.392;-6.248;2024-01-15T08:04:21;100795.63;;;-0.78;100.00
43707;BME280;61348;53.392;-6.248;2024-01-15T08:06:49;100802.94;;;-0.78;100.00
43707;BME280;61348;53.392;-6.248;2024-01-15T08:09:16;100807.31;;;-0.77;100.00
43707;BME280;61348;53.392;-6.248;2024-01-15T08:11:44;100810.81;;;-0.77;100.00
43707;BME280;61348;53.392;-6.248;2024-01-15T08:14:11;100808.94;;;-0.76;100.00
43707;BME280;61348;53.392;-6.248;2024-01-15T08:16:40;100807.03;;;-0.76;100.00
43707;BME280;61348;53.392;-6.248;2024-01-15T08:19:07;100798.88;;;-0.76;100.00
43707;BME280;61348;53.392;-6.248;2024-01-15T08:21:35;100808.69;;;-0.75;100.00
43707;BME280;61348;53.392;-6.248;2024-01-15T08:24:03;100789.66;;;-0.75;100.00
43707;BME280;61348;53.392;-6.248;2024-01-15T08:26:30;100800.53;;;-0.75;100.00
43707;BME280;61348;53.392;-6.248;2024-01-15T08:28:58;100802.13;;;-0.74;100.00
43707;BME280;61348;53.392;-6.248;2024-01-15T08:31:25;100809.22;;;-0.73;100.00
43707;BME280;61348;53.392;-6.248;2024-01-15T08:33:53;100818.44;;;-0.74;100.00
43707;BME280;61348;53.392;-6.248;2024-01-15T08:36:21;100825.78;;;-0.74;100.00
43707;BME280;61348;53.392;-6.248;2024-01-15T08:38:48;100818.44;;;-0.74;100.00
43707;BME280;61348;53.392;-6.248;2024-01-15T08:41:16;100816.25;;;-0.77;100.00
43707;BME280;61348;53.392;-6.248;2024-01-15T08:43:43;100818.97;;;-0.77;100.00
43707;BME280;61348;53.392;-6.248;2024-01-15T08:46:10;100813.53;;;-0.77;100.00
43707;BME280;61348;53.392;-6.248;2024-01-15T08:48:38;100815.72;;;-0.74;100.00
43707;BME280;61348;53.392;-6.248;2024-01-15T08:51:07;100810.03;;;-0.72;100.00
43707;BME280;61348;53.392;-6.248;2024-01-15T08:53:35;100812.47;;;-0.71;100.00
43707;BME280;61348;53.392;-6.248;2024-01-15T08:56:03;100811.94;;;-0.68;100.00
43707;BME280;61348;53.392;-6.248;2024-01-15T08:58:30;100821.75;;;-0.67;100.00
43707;BME280;61348;53.392;-6.248;2024-01-15T09:00:57;100822.28;;;-0.65;100.00
43707;BME280;61348;53.392;-6.248;2024-01-15T09:03:25;100830.44;;;-0.65;100.00
43707;BME280;61348;53.392;-6.248;2024-01-15T09:05:53;100825.53;;;-0.63;100.00
43707;BME280;61348;53.392;-6.248;2024-01-15T09:08:20;100830.44;;;-0.59;100.00
43707;BME280;61348;53.392;-6.248;2024-01-15T09:10:47;100830.97;;;-0.57;100.00
43707;BME280;61348;53.392;-6.248;2024-01-15T09:13:15;100841.31;;;-0.54;100.00
43707;BME280;61348;53.392;-6.248;2024-01-15T09:15:47;100840.78;;;-0.51;100.00
43707;BME280;61348;53.392;-6.248;2024-01-15T09:18:14;100840.50;;;-0.50;100.00
43707;BME280;61348;53.392;-6.248;2024-01-15T09:20:42;100831.00;;;-0.47;100.00
43707;BME280;61348;53.392;-6.248;2024-01-15T09:23:09;100834.00;;;-0.44;100.00
43707;BME280;61348;53.392;-6.248;2024-01-15T09:25:36;100825.56;;;-0.42;100.00
43707;BME280;61348;53.392;-6.248;2024-01-15T09:28:04;100836.47;;;-0.37;100.00
43707;BME280;61348;53.392;-6.248;2024-01-15T09:30:31;100835.91;;;-0.34;100.00
43707;BME280;61348;53.392;-6.248;2024-01-15T09:32:58;100846.25;;;-0.31;100.00
43707;BME280;61348;53.392;-6.248;2024-01-15T09:35:26;100852.25;;;-0.29;100.00
43707;BME280;61348;53.392;-6.248;2024-01-15T09:37:53;100860.94;;;-0.27;100.00
43707;BME280;61348;53.392;-6.248;2024-01-15T09:40:21;100853.31;;;-0.25;100.00
43707;BME280;61348;53.392;-6.248;2024-01-15T09:42:49;100856.59;;;-0.23;100.00
43707;BME280;61348;53.392;-6.248;2024-01-15T09:45:18;100856.03;;;-0.20;100.00
43707;BME280;61348;53.392;-6.248;2024-01-15T09:47:45;100865.56;;;-0.18;100.00
43707;BME280;61348;53.392;-6.248;2024-01-15T09:50:14;100846.28;;;-0.16;100.00
43707;BME280;61348;53.392;-6.248;2024-01-15T09:52:45;100853.06;;;-0.14;100.00
43707;BME280;61348;53.392;-6.248;2024-01-15T09:55:13;100852.50;;;-0.11;100.00
43707;BME280;61348;53.392;-6.248;2024-01-15T09:57:44;100851.97;;;-0.08;100.00
43707;BME280;61348;53.392;-6.248;2024-01-15T10:00:14;100853.88;;;-0.08;100.00
43707;BME280;61348;53.392;-6.248;2024-01-15T10:02:44;100862.06;;;-0.08;100.00
43707;BME280;61348;53.392;-6.248;2024-01-15T10:05:11;100860.94;;;-0.07;100.00
43707;BME280;61348;53.392;-6.248;2024-01-15T10:07:39;100867.22;;;-0.07;100.00
43707;BME280;61348;53.392;-6.248;2024-01-15T10:10:07;100869.66;;;-0.05;100.00
43707;BME280;61348;53.392;-6.248;2024-01-15T10:12:36;100869.09;;;-0.02;100.00
43707;BME280;61348;53.392;-6.248;2024-01-15T10:15:09;100872.13;;;0.02;100.00
43707;BME280;61348;53.392;-6.248;2024-01-15T10:17:38;100876.19;;;0.04;100.00
43707;BME280;61348;53.392;-6.248;2024-01-15T10:20:10;100865.03;;;0.06;100.00
43707;BME280;61348;53.392;-6.248;2024-01-15T10:22:41;100866.38;;;0.08;100.00
43707;BME280;61348;53.392;-6.248;2024-01-15T10:25:11;100859.59;;;0.11;100.00
43707;BME280;61348;53.392;-6.248;2024-01-15T10:27:40;100859.84;;;0.14;100.00
43707;BME280;61348;53.392;-6.248;2024-01-15T10:30:11;100863.69;;;0.18;100.00
43707;BME280;61348;53.392;-6.248;2024-01-15T10:32:41;100871.31;;;0.21;100.00
43707;BME280;61348;53.392;-6.248;2024-01-15T10:35:09;100863.66;;;0.23;100.00
43707;BME280;61348;53.392;-6.248;2024-01-15T10:37:37;100875.09;;;0.25;100.00
43707;BME280;61348;53.392;-6.248;2024-01-15T10:40:04;100877.28;;;0.28;100.00
43707;BME280;61348;53.392;-6.248;2024-01-15T10:42:32;100873.44;;;0.29;100.00
43707;BME280;61348;53.392;-6.248;2024-01-15T10:44:59;100871.53;;;0.30;100.00
43707;BME280;61348;53.392;-6.248;2024-01-15T10:47:27;100872.34;;;0.30;100.00
43707;BME280;61348;53.392;-6.248;2024-01-15T10:49:55;100881.88;;;0.33;100.00
43707;BME280;61348;53.392;-6.248;2024-01-15T10:52:23;100888.69;;;0.35;100.00
43707;BME280;61348;53.392;-6.248;2024-01-15T10:54:51;100891.69;;;0.39;100.00
43707;BME280;61348;53.392;-6.248;2024-01-15T10:57:21;100882.41;;;0.40;100.00
43707;BME280;61348;53.392;-6.248;2024-01-15T10:59:49;100884.34;;;0.44;100.00
43707;BME280;61348;53.392;-6.248;2024-01-15T11:02:17;100881.84;;;0.48;100.00
43707;BME280;61348;53.392;-6.248;2024-01-15T11:04:44;100879.41;;;0.51;100.00
43707;BME280;61348;53.392;-6.248;2024-01-15T11:07:13;100885.94;;;0.55;100.00
43707;BME280;61348;53.392;-6.248;2024-01-15T11:09:41;100890.81;;;0.58;100.00
43707;BME280;61348;53.392;-6.248;2024-01-15T11:12:12;100883.22;;;0.60;100.00
43707;BME280;61348;53.392;-6.248;2024-01-15T11:14:44;100892.44;;;0.65;100.00
43707;BME280;61348;53.392;-6.248;2024-01-15T11:17:13;100880.19;;;0.67;100.00
43707;BME280;61348;53.392;-6.248;2024-01-15T11:19:48;100883.19;;;0.71;100.00
43707;BME280;61348;53.392;-6.248;2024-01-15T11:25:18;100875.00;;;0.76;100.00
43707;BME280;61348;53.392;-6.248;2024-01-15T11:27:48;100880.97;;;0.78;100.00
43707;BME280;61348;53.392;-6.248;2024-01-15T11:30:20;100873.88;;;0.82;100.00
43707;BME280;61348;53.392;-6.248;2024-01-15T11:32:51;100882.59;;;0.84;100.00
43707;BME280;61348;53.392;-6.248;2024-01-15T11:35:18;100870.59;;;0.90;100.00
43707;BME280;61348;53.392;-6.248;2024-01-15T11:43:00;100871.09;;;1.02;100.00
43707;BME280;61348;53.392;-6.248;2024-01-15T11:45:27;100870.53;;;1.05;100.00
43707;BME280;61348;53.392;-6.248;2024-01-15T11:50:33;100866.09;;;1.14;100.00
43707;BME280;61348;53.392;-6.248;2024-01-15T11:53:03;100866.66;;;1.16;100.00
43707;BME280;61348;53.392;-6.248;2024-01-15T11:55:34;100862.81;;;1.17;100.00
43707;BME280;61348;53.392;-6.248;2024-01-15T11:58:10;100854.66;;;1.17;100.00
43707;BME280;61348;53.392;-6.248;2024-01-15T12:00:42;100856.28;;;1.18;100.00
43707;BME280;61348;53.392;-6.248;2024-01-15T12:03:10;100855.72;;;1.21;100.00
43707;BME280;61348;53.392;-6.248;2024-01-15T12:05:38;100850.28;;;1.21;100.00
43707;BME280;61348;53.392;-6.248;2024-01-15T12:08:06;100857.34;;;1.22;100.00
43707;BME280;61348;53.392;-6.248;2024-01-15T12:10:40;100852.44;;;1.24;100.00
43707;BME280;61348;53.392;-6.248;2024-01-15T12:13:12;100862.25;;;1.25;100.00
43707;BME280;61348;53.392;-6.248;2024-01-15T12:15:41;100854.63;;;1.27;100.00
43707;BME280;61348;53.392;-6.248;2024-01-15T12:18:13;100850.78;;;1.28;100.00
43707;BME280;61348;53.392;-6.248;2024-01-15T12:20:43;100855.16;;;1.29;100.00
43707;BME280;61348;53.392;-6.248;2024-01-15T12:23:10;100852.94;;;1.31;100.00
43707;BME280;61348;53.392;-6.248;2024-01-15T12:25:39;100851.84;;;1.32;100.00
43707;BME280;61348;53.392;-6.248;2024-01-15T12:28:07;100851.84;;;1.32;100.00
43707;BME280;61348;53.392;-6.248;2024-01-15T12:30:35;100857.03;;;1.34;100.00
43707;BME280;61348;53.392;-6.248;2024-01-15T12:33:05;100845.81;;;1.35;100.00
43707;BME280;61348;53.392;-6.248;2024-01-15T12:35:36;100847.47;;;1.36;100.00
43707;BME280;61348;53.392;-6.248;2024-01-15T12:38:03;100854.56;;;1.37;100.00
43707;BME280;61348;53.392;-6.248;2024-01-15T12:40:32;100844.47;;;1.38;100.00
43707;BME280;61348;53.392;-6.248;2024-01-15T12:43:02;100852.34;;;1.39;100.00
43707;BME280;61348;53.392;-6.248;2024-01-15T12:45:30;100848.25;;;1.42;100.00
43707;BME280;61348;53.392;-6.248;2024-01-15T12:47:59;100844.13;;;1.44;100.00
43707;BME280;61348;53.392;-6.248;2024-01-15T12:50:27;100850.13;;;1.46;100.00